Time;durP1;ratioP1;P1;durP2;ratioP2;P2;SDS_P1;SDS_P2;PMS_P1;PMS_P2;Temp;Humidity;BMP_temperature;BMP_pressure;BME280_temperature;BME280_humidity;BME280_pressure;Samples;Min_cycle;Max_cycle;Signal;HPM_P1;HPM_P2
2022/08/07 00:01:22;;;;;;;4.03;0.90;;;19.90;50.60;;;;;;5031173;28;20471;-74
2022/08/07 00:04:10;;;;;;;4.73;0.93;;;19.90;50.70;;;;;;5036642;28;20482;-75
2022/08/07 00:06:43;;;;;;;4.40;0.97;;;20.00;50.80;;;;;;5035863;28;20837;-74
2022/08/07 00:09:21;;;;;;;5.27;1.37;;;20.00;50.80;;;;;;5037222;28;21368;-75
2022/08/07 00:12:01;;;;;;;5.53;0.90;;;19.90;50.90;;;;;;5035585;28;20452;-75
2022/08/07 00:14:30;;;;;;;3.40;0.77;;;19.90;50.80;;;;;;5034008;28;20458;-75
2022/08/07 00:16:59;;;;;;;5.80;1.00;;;19.90;50.90;;;;;;5034652;28;20508;-74
2022/08/07 00:19:30;;;;;;;6.53;1.23;;;19.90;50.90;;;;;;5036739;28;21077;-73
2022/08/07 00:22:18;;;;;;;5.83;1.00;;;19.80;51.00;;;;;;5037976;28;20531;-74
2022/08/07 00:25:04;;;;;;;4.63;0.93;;;19.70;51.10;;;;;;5037898;28;20467;-73
2022/08/07 00:27:35;;;;;;;3.63;1.00;;;19.70;51.30;;;;;;5039707;28;20545;-74
2022/08/07 00:30:21;;;;;;;4.07;0.90;;;19.70;51.30;;;;;;5033641;28;20475;-74
2022/08/07 00:32:56;;;;;;;8.23;1.10;;;19.70;51.40;;;;;;5036837;28;20488;-75
2022/08/07 00:35:24;;;;;;;3.90;0.97;;;19.70;51.50;;;;;;5032446;28;20467;-74
2022/08/07 00:37:53;;;;;;;3.20;0.87;;;19.70;51.50;;;;;;5038357;28;20485;-74
2022/08/07 00:40:23;;;;;;;5.00;1.10;;;19.70;51.60;;;;;;5050436;28;20462;-73
2022/08/07 00:43:09;;;;;;;4.80;1.00;;;19.70;51.60;;;;;;5038166;28;20571;-75
2022/08/07 00:45:57;;;;;;;4.20;0.70;;;19.70;51.60;;;;;;5035016;28;20482;-74
2022/08/07 00:48:25;;;;;;;4.53;1.33;;;19.60;51.70;;;;;;5033366;28;20478;-72
2022/08/07 00:51:00;;;;;;;3.47;0.80;;;19.60;51.80;;;;;;5036261;28;20480;-74
2022/08/07 00:53:28;;;;;;;4.17;0.97;;;19.60;51.90;;;;;;5036075;28;20472;-74
2022/08/07 00:56:15;;;;;;;4.17;0.80;;;19.60;52.00;;;;;;5032324;28;21005;-74
2022/08/07 00:58:45;;;;;;;3.67;0.70;;;19.60;52.00;;;;;;5036643;28;21358;-75
2022/08/07 01:01:18;;;;;;;4.20;0.67;;;19.60;52.10;;;;;;5035521;28;20478;-74
2022/08/07 01:03:47;;;;;;;4.90;0.70;;;19.60;52.10;;;;;;5034887;28;20507;-74
2022/08/07 01:06:27;;;;;;;4.50;0.90;;;19.50;52.10;;;;;;5033918;28;20492;-74
2022/08/07 01:08:56;;;;;;;4.00;0.97;;;19.50;52.10;;;;;;5035431;28;20481;-72
2022/08/07 01:11:28;;;;;;;3.57;0.73;;;19.50;52.10;;;;;;5065070;28;20453;-75
2022/08/07 01:14:18;;;;;;;4.67;1.00;;;19.40;52.10;;;;;;5037107;28;20486;-74
2022/08/07 01:16:56;;;;;;;4.50;0.87;;;19.30;52.10;;;;;;5067304;28;20477;-74
2022/08/07 01:19:29;;;;;;;4.80;0.87;;;19.20;52.20;;;;;;5039672;28;20494;-75
2022/08/07 01:22:01;;;;;;;4.67;0.90;;;19.10;52.30;;;;;;5044389;28;20845;-74
2022/08/07 01:24:35;;;;;;;4.57;0.90;;;19.00;52.30;;;;;;5033227;28;20544;-72
2022/08/07 01:27:05;;;;;;;3.50;1.00;;;18.90;52.30;;;;;;5033401;28;20517;-74
2022/08/07 01:29:47;;;;;;;4.23;0.90;;;18.70;52.60;;;;;;5037239;28;20464;-75
2022/08/07 01:32:18;;;;;;;4.97;0.97;;;18.70;52.80;;;;;;5067250;28;20480;-74
2022/08/07 01:34:51;;;;;;;6.13;1.07;;;18.60;52.90;;;;;;5033604;28;21070;-74
2022/08/07 01:37:21;;;;;;;3.93;0.90;;;18.60;53.10;;;;;;5066262;28;21268;-74
2022/08/07 01:39:52;;;;;;;3.43;0.83;;;18.60;53.10;;;;;;5032885;28;20858;-75
2022/08/07 01:42:30;;;;;;;3.50;0.70;;;18.60;53.20;;;;;;5033641;28;20550;-74
2022/08/07 01:45:20;;;;;;;3.80;1.13;;;18.60;53.20;;;;;;5036611;28;21469;-73
2022/08/07 01:47:57;;;;;;;4.13;0.73;;;18.50;53.30;;;;;;5033259;28;20989;-75
2022/08/07 01:50:49;;;;;;;5.10;0.90;;;18.50;53.40;;;;;;5067579;28;20571;-73
2022/08/07 01:53:25;;;;;;;3.60;0.63;;;18.40;53.60;;;;;;5068766;28;20452;-74
2022/08/07 01:56:16;;;;;;;4.10;1.17;;;18.40;53.60;;;;;;5032560;28;20580;-74
2022/08/07 01:58:50;;;;;;;3.43;0.70;;;18.40;53.60;;;;;;5033322;28;20507;-74
2022/08/07 02:01:23;;;;;;;3.50;1.00;;;18.30;53.60;;;;;;5062275;28;21001;-73
2022/08/07 02:04:16;;;;;;;4.73;1.23;;;18.20;53.70;;;;;;5065332;28;21305;-74
2022/08/07 02:06:51;;;;;;;5.90;0.80;;;18.10;53.80;;;;;;5033890;28;20485;-74
2022/08/07 02:09:23;;;;;;;3.60;0.70;;;18.10;53.90;;;;;;5036521;28;20459;-74
2022/08/07 02:12:17;;;;;;;4.37;1.30;;;18.00;54.10;;;;;;5037864;28;20458;-73
2022/08/07 02:14:55;;;;;;;4.30;1.10;;;17.90;54.20;;;;;;5067700;28;20460;-73
2022/08/07 02:17:32;;;;;;;4.17;0.93;;;17.90;54.30;;;;;;5009076;28;20481;-74
2022/08/07 02:20:03;;;;;;;3.67;0.97;;;17.80;54.40;;;;;;5010662;28;20521;-74
2022/08/07 02:22:45;;;;;;;3.80;1.00;;;17.80;54.60;;;;;;5012199;28;20957;-74
2022/08/07 02:25:24;;;;;;;3.37;0.90;;;17.70;54.70;;;;;;5029918;28;20537;-74
2022/08/07 02:32:22;;;;;;;6.70;1.00;;;17.60;55.10;;;;;;5013630;28;21018;-73
2022/08/07 02:34:59;;;;;;;5.00;1.07;;;17.50;55.10;;;;;;5013706;28;20447;-73
2022/08/07 02:37:31;;;;;;;3.80;0.80;;;17.50;55.20;;;;;;5012800;28;20575;-74
2022/08/07 02:40:07;;;;;;;3.60;0.80;;;17.50;55.40;;;;;;5016498;28;20967;-74
2022/08/07 02:42:59;;;;;;;3.20;0.80;;;17.50;55.50;;;;;;5017494;28;20464;-74
2022/08/07 02:45:38;;;;;;;4.83;1.00;;;17.50;55.50;;;;;;5016619;28;20573;-74
2022/08/07 02:48:26;;;;;;;3.93;0.90;;;17.50;55.60;;;;;;5015561;28;20558;-74
2022/08/07 02:50:59;;;;;;;3.77;0.80;;;17.50;55.60;;;;;;5023816;28;20475;-74
2022/08/07 02:53:32;;;;;;;3.50;1.00;;;17.50;55.60;;;;;;5025178;28;20463;-74
2022/08/07 02:56:11;;;;;;;5.67;1.37;;;17.40;55.60;;;;;;5018859;28;20566;-74
2022/08/07 02:58:51;;;;;;;3.83;0.80;;;17.40;55.70;;;;;;5013731;28;20476;-74
2022/08/07 03:01:26;;;;;;;3.40;1.00;;;17.30;55.80;;;;;;5015396;28;20556;-73
2022/08/07 03:04:13;;;;;;;3.30;0.80;;;17.30;55.90;;;;;;5023174;28;21051;-74
2022/08/07 03:06:44;;;;;;;3.70;0.90;;;17.30;56.00;;;;;;5018190;28;20531;-74
2022/08/07 03:09:17;;;;;;;3.90;1.00;;;17.30;56.00;;;;;;5035745;28;20457;-74
2022/08/07 03:12:06;;;;;;;3.80;0.80;;;17.30;56.00;;;;;;5013785;28;20476;-73
2022/08/07 03:14:55;;;;;;;3.50;1.00;;;17.30;56.00;;;;;;5018451;28;20454;-74
2022/08/07 03:17:23;;;;;;;6.63;0.90;;;17.30;56.10;;;;;;5031996;28;20487;-74
2022/08/07 03:19:54;;;;;;;3.60;1.07;;;17.30;56.10;;;;;;5018215;28;20468;-73
2022/08/07 03:22:26;;;;;;;6.03;1.30;;;17.30;56.10;;;;;;5035467;28;21039;-73
2022/08/07 03:24:59;;;;;;;4.63;1.13;;;17.20;56.10;;;;;;5015202;28;20468;-73
2022/08/07 03:27:33;;;;;;;3.80;1.00;;;17.20;56.20;;;;;;5011361;28;20607;-72
2022/08/07 03:30:24;;;;;;;4.00;1.20;;;17.20;56.20;;;;;;5048851;28;20538;-73
2022/08/07 03:32:55;;;;;;;3.50;0.90;;;17.10;56.30;;;;;;5052866;28;20547;-73
2022/08/07 03:35:29;;;;;;;5.73;1.03;;;17.00;56.30;;;;;;5036073;28;21033;-73
2022/08/07 03:38:12;;;;;;;3.43;0.90;;;17.00;56.40;;;;;;5018293;28;21020;-73
2022/08/07 03:40:42;;;;;;;4.03;1.37;;;16.90;56.40;;;;;;5016946;28;20495;-74
2022/08/07 03:43:14;;;;;;;10.80;1.27;;;16.90;56.50;;;;;;5016909;28;20500;-73
2022/08/07 03:45:51;;;;;;;4.53;1.50;;;16.90;56.60;;;;;;5014111;28;20571;-73
2022/08/07 03:48:24;;;;;;;3.33;0.90;;;16.90;56.60;;;;;;5017443;28;20556;-73
2022/08/07 03:50:55;;;;;;;5.43;1.03;;;16.80;56.60;;;;;;5018763;28;20462;-74
2022/08/07 03:53:31;;;;;;;4.27;0.80;;;16.90;56.60;;;;;;5017568;28;20587;-74
2022/08/07 03:56:22;;;;;;;5.37;0.97;;;16.80;56.70;;;;;;5032423;28;20497;-74
2022/08/07 03:59:04;;;;;;;6.80;1.10;;;16.90;56.70;;;;;;5019957;28;20535;-73
2022/08/07 04:01:45;;;;;;;3.90;1.10;;;16.90;56.80;;;;;;5019516;28;20683;-73
2022/08/07 04:04:17;;;;;;;4.13;1.10;;;16.80;56.70;;;;;;5018150;28;20560;-73
2022/08/07 04:06:49;;;;;;;3.40;0.83;;;16.80;56.80;;;;;;5013684;28;20612;-74
2022/08/07 04:09:20;;;;;;;4.97;1.07;;;16.80;56.80;;;;;;5014501;28;20878;-73
2022/08/07 04:11:53;;;;;;;10.60;1.63;;;16.80;56.80;;;;;;5017136;28;20467;-74
2022/08/07 04:14:42;;;;;;;3.57;0.80;;;16.80;56.80;;;;;;5030023;28;20462;-73
2022/08/07 04:17:18;;;;;;;4.23;0.80;;;16.80;56.80;;;;;;5042952;28;20572;-71
2022/08/07 04:19:49;;;;;;;8.10;1.20;;;16.80;56.80;;;;;;5045836;28;21371;-72
2022/08/07 04:22:24;;;;;;;5.03;1.00;;;16.80;56.80;;;;;;5016864;28;20453;-73
2022/08/07 04:24:58;;;;;;;4.27;1.10;;;16.80;56.80;;;;;;5029155;28;20486;-73
2022/08/07 04:27:29;;;;;;;3.50;1.10;;;16.80;56.90;;;;;;5019291;28;20481;-74
2022/08/07 04:30:09;;;;;;;3.40;1.20;;;16.70;56.90;;;;;;5044657;28;20553;-73
2022/08/07 04:33:06;;;;;;;3.43;0.90;;;16.70;56.90;;;;;;5015294;28;20466;-75
2022/08/07 04:35:37;;;;;;;3.70;1.10;;;16.70;57.00;;;;;;5016671;28;20456;-74
2022/08/07 04:38:10;;;;;;;3.30;0.97;;;16.70;57.10;;;;;;5027079;28;20473;-74
2022/08/07 04:40:45;;;;;;;3.60;1.27;;;16.70;57.40;;;;;;5018049;28;20479;-73
2022/08/07 04:43:29;;;;;;;3.73;0.93;;;16.70;57.40;;;;;;5017671;28;20519;-73
2022/08/07 04:46:26;;;;;;;3.90;1.30;;;16.70;57.60;;;;;;5018603;28;20473;-74
2022/08/07 04:49:14;;;;;;;3.30;0.90;;;16.70;57.60;;;;;;5030740;28;20576;-73
2022/08/07 04:52:00;;;;;;;3.50;1.20;;;16.70;57.80;;;;;;5029906;28;21041;-73
2022/08/07 04:54:33;;;;;;;4.67;0.93;;;16.70;58.00;;;;;;5030933;28;20496;-73
2022/08/07 04:57:14;;;;;;;5.63;1.33;;;16.80;58.10;;;;;;5026840;28;20892;-73
2022/08/07 05:00:05;;;;;;;4.77;1.17;;;16.90;58.30;;;;;;5016365;28;20557;-72
2022/08/07 05:02:48;;;;;;;3.60;1.10;;;17.10;58.40;;;;;;5012432;28;20551;-73
2022/08/07 05:05:24;;;;;;;6.90;1.10;;;17.30;58.40;;;;;;5031169;28;20901;-73
2022/08/07 05:08:21;;;;;;;4.00;1.00;;;17.50;58.30;;;;;;5014618;28;20514;-74
2022/08/07 05:11:13;;;;;;;4.43;1.20;;;17.70;58.30;;;;;;5014372;28;20480;-72
2022/08/07 05:13:56;;;;;;;3.53;0.97;;;18.00;58.30;;;;;;5012590;28;20462;-74
2022/08/07 05:16:46;;;;;;;4.83;1.10;;;18.30;58.60;;;;;;5020086;28;20498;-74
2022/08/07 05:19:22;;;;;;;3.50;1.00;;;18.80;59.10;;;;;;5029479;28;20548;-74
2022/08/07 05:22:15;;;;;;;4.07;0.80;;;19.60;58.40;;;;;;5013574;28;20963;-74
2022/08/07 05:24:57;;;;;;;5.03;1.77;;;20.80;56.80;;;;;;5027772;28;21236;-74
2022/08/07 05:27:27;;;;;;;4.13;1.10;;;22.10;54.90;;;;;;5022309;28;20995;-73
2022/08/07 05:30:16;;;;;;;4.40;0.80;;;23.20;53.50;;;;;;5021828;28;20460;-73
2022/08/07 05:33:03;;;;;;;3.90;0.87;;;24.30;52.10;;;;;;5019475;28;21242;-73
2022/08/07 05:35:33;;;;;;;3.53;0.90;;;25.30;51.10;;;;;;5019806;28;20492;-75
2022/08/07 05:38:12;;;;;;;3.80;0.97;;;26.10;50.20;;;;;;5016911;28;20496;-73
2022/08/07 05:41:01;;;;;;;4.13;0.83;;;26.90;49.30;;;;;;5019159;28;20486;-73
2022/08/07 05:43:40;;;;;;;3.53;0.70;;;27.70;48.30;;;;;;5030024;28;20472;-73
2022/08/07 05:46:28;;;;;;;5.50;0.90;;;28.40;47.60;;;;;;5015081;28;20538;-75
2022/08/07 05:49:00;;;;;;;4.47;0.80;;;29.20;46.70;;;;;;5015055;28;20482;-72
2022/08/07 05:51:39;;;;;;;7.27;0.90;;;29.90;45.90;;;;;;5017288;28;20457;-74
2022/08/07 05:54:10;;;;;;;4.50;0.70;;;30.60;45.00;;;;;;5050206;28;20463;-74
2022/08/07 05:57:02;;;;;;;3.80;0.83;;;31.20;44.10;;;;;;5014614;28;20467;-73
2022/08/07 05:59:36;;;;;;;3.30;0.80;;;32.00;43.00;;;;;;5015943;28;20585;-73
2022/08/07 06:02:24;;;;;;;3.30;0.77;;;32.50;41.70;;;;;;5022991;28;20557;-74
2022/08/07 06:05:02;;;;;;;3.53;0.70;;;32.70;40.50;;;;;;5029878;28;20486;-74
2022/08/07 06:07:32;;;;;;;3.20;0.80;;;32.70;40.10;;;;;;5014871;28;20495;-71
2022/08/07 06:10:23;;;;;;;4.27;1.00;;;32.80;40.00;;;;;;5030126;28;20483;-74
2022/08/07 06:12:51;;;;;;;3.80;0.90;;;32.60;39.30;;;;;;5014748;28;20497;-73
2022/08/07 06:15:20;;;;;;;3.20;0.70;;;31.30;38.60;;;;;;5016775;28;21130;-74
2022/08/07 06:18:07;;;;;;;3.77;0.60;;;29.30;39.40;;;;;;5014174;28;20486;-73
2022/08/07 06:20:37;;;;;;;4.60;0.90;;;27.00;40.60;;;;;;5018466;28;20460;-73
2022/08/07 06:23:26;;;;;;;4.43;0.77;;;25.20;42.20;;;;;;5020360;28;20466;-74
2022/08/07 06:26:15;;;;;;;6.30;0.73;;;23.70;43.60;;;;;;5019736;28;20482;-75
2022/08/07 06:28:51;;;;;;;3.60;0.97;;;22.60;44.80;;;;;;5022200;28;20485;-74
2022/08/07 06:31:20;;;;;;;3.73;0.87;;;21.90;46.50;;;;;;5033154;28;20482;-72
2022/08/07 06:34:08;;;;;;;3.60;0.70;;;21.40;47.10;;;;;;5019112;28;20485;-73
2022/08/07 06:36:40;;;;;;;3.80;0.67;;;20.90;48.00;;;;;;5024016;28;20491;-74
2022/08/07 06:39:11;;;;;;;3.20;0.60;;;20.60;48.70;;;;;;5019667;28;20539;-73
2022/08/07 06:42:06;;;;;;;3.93;1.13;;;20.40;48.90;;;;;;5015242;28;20475;-73
2022/08/07 06:45:09;;;;;;;6.13;1.43;;;20.20;49.60;;;;;;5015090;28;20462;-74
2022/08/07 06:47:39;;;;;;;4.90;0.83;;;20.10;50.30;;;;;;5036753;28;21161;-74
2022/08/07 06:50:27;;;;;;;3.20;0.60;;;20.00;50.40;;;;;;5066133;28;20466;-74
2022/08/07 06:53:00;;;;;;;7.10;0.80;;;20.00;50.70;;;;;;5037023;28;20828;-73
2022/08/07 06:55:33;;;;;;;3.73;0.80;;;19.90;51.20;;;;;;5068309;28;20879;-73
2022/08/07 06:58:25;;;;;;;4.60;0.80;;;19.90;51.70;;;;;;5041471;28;20581;-73
2022/08/07 07:01:08;;;;;;;3.87;0.77;;;19.90;51.80;;;;;;5049117;28;21041;-74
2022/08/07 07:03:40;;;;;;;3.20;0.80;;;19.80;51.90;;;;;;5044318;28;20979;-74
2022/08/07 07:06:17;;;;;;;3.23;0.60;;;19.80;52.30;;;;;;5039467;28;20501;-73
2022/08/07 07:08:50;;;;;;;3.67;0.80;;;19.80;52.70;;;;;;5040012;28;20475;-75
2022/08/07 07:11:19;;;;;;;4.20;0.80;;;19.90;52.80;;;;;;5034929;28;20465;-73
2022/08/07 07:14:10;;;;;;;4.90;0.73;;;19.90;53.20;;;;;;5039046;28;20487;-74
2022/08/07 07:16:43;;;;;;;3.60;0.80;;;20.00;52.90;;;;;;5040858;28;20885;-73
2022/08/07 07:19:21;;;;;;;3.87;0.83;;;20.00;52.90;;;;;;5072379;28;20548;-72
2022/08/07 07:22:10;;;;;;;3.40;0.63;;;20.10;53.00;;;;;;5035997;28;20978;-73
2022/08/07 07:25:00;;;;;;;4.03;0.83;;;20.20;52.90;;;;;;5044248;28;20832;-72
2022/08/07 07:27:52;;;;;;;4.03;0.80;;;20.40;52.90;;;;;;5039348;28;20612;-72
2022/08/07 07:30:37;;;;;;;4.53;0.80;;;20.50;53.10;;;;;;5040564;28;20467;-72
2022/08/07 07:33:10;;;;;;;3.40;0.80;;;20.60;52.90;;;;;;5035524;28;20472;-73
2022/08/07 07:35:42;;;;;;;4.23;0.80;;;20.60;52.90;;;;;;5038386;28;20460;-73
2022/08/07 07:38:32;;;;;;;4.63;0.83;;;20.70;52.80;;;;;;5039939;28;20471;-73
2022/08/07 07:41:04;;;;;;;3.47;0.80;;;20.80;52.70;;;;;;5038941;28;20451;-73
2022/08/07 07:43:39;;;;;;;3.50;0.70;;;20.80;52.60;;;;;;5042290;28;20462;-73
2022/08/07 07:46:33;;;;;;;3.70;0.70;;;20.80;52.60;;;;;;5039877;28;20492;-72
2022/08/07 07:49:22;;;;;;;3.80;0.87;;;20.90;52.80;;;;;;5047275;28;20539;-73
2022/08/07 07:52:12;;;;;;;3.33;0.70;;;20.90;52.60;;;;;;5038178;28;20905;-73
2022/08/07 07:54:43;;;;;;;4.57;0.87;;;21.00;52.60;;;;;;5037425;28;20539;-73
2022/08/07 07:57:24;;;;;;;5.57;0.97;;;21.00;52.70;;;;;;5033281;28;20483;-73
2022/08/07 08:00:13;;;;;;;3.30;0.80;;;21.10;52.60;;;;;;5043114;28;20471;-73
2022/08/07 08:03:04;;;;;;;5.60;0.93;;;21.10;52.60;;;;;;5042959;28;20839;-72
2022/08/07 08:05:40;;;;;;;5.80;0.83;;;21.20;52.50;;;;;;5045453;28;20538;-72
2022/08/07 08:08:18;;;;;;;3.63;0.97;;;21.20;52.60;;;;;;5031453;28;20603;-73
2022/08/07 08:11:11;;;;;;;4.07;0.90;;;21.30;52.50;;;;;;5033971;28;20468;-72
2022/08/07 08:13:59;;;;;;;5.93;1.00;;;21.40;52.30;;;;;;5038974;28;20630;-71
2022/08/07 08:16:32;;;;;;;4.37;0.70;;;21.40;52.30;;;;;;5033795;28;20485;-71
2022/08/07 08:19:27;;;;;;;4.40;1.30;;;21.40;52.30;;;;;;5034078;28;20471;-71
2022/08/07 08:28:12;;;;;;;3.73;0.80;;;21.70;52.10;;;;;;5028250;28;20492;-71
2022/08/07 08:30:55;;;;;;;3.50;0.83;;;21.70;52.00;;;;;;5044571;28;20482;-72
2022/08/07 08:33:26;;;;;;;3.60;0.90;;;21.80;52.00;;;;;;5041213;28;20468;-72
2022/08/07 08:36:02;;;;;;;4.30;0.73;;;21.80;51.90;;;;;;5036141;28;21291;-71
2022/08/07 08:38:35;;;;;;;3.73;0.87;;;21.80;51.80;;;;;;5035887;28;20572;-72
2022/08/07 08:41:14;;;;;;;5.60;1.07;;;21.90;51.80;;;;;;5040003;28;21156;-72
2022/08/07 08:43:52;;;;;;;4.60;0.93;;;21.90;51.80;;;;;;5037203;28;20469;-71
2022/08/07 08:46:37;;;;;;;3.00;0.70;;;21.90;51.70;;;;;;5038918;28;20490;-73
2022/08/07 08:49:12;;;;;;;4.57;1.00;;;22.00;51.80;;;;;;5037930;28;20573;-71
2022/08/07 08:51:51;;;;;;;4.13;0.70;;;22.10;51.70;;;;;;5034501;28;20469;-72
2022/08/07 08:54:44;;;;;;;3.90;0.80;;;22.10;51.60;;;;;;5035236;28;20485;-72
2022/08/07 08:57:17;;;;;;;3.40;0.80;;;22.20;51.40;;;;;;5038310;28;20495;-74
2022/08/07 08:59:50;;;;;;;3.30;0.67;;;22.20;51.50;;;;;;5040792;28;20467;-74
2022/08/07 09:02:34;;;;;;;4.17;0.80;;;22.20;51.40;;;;;;5040008;28;20486;-73
2022/08/07 09:05:19;;;;;;;4.13;0.97;;;22.30;51.40;;;;;;5034830;28;20516;-74
2022/08/07 09:08:18;;;;;;;4.10;0.90;;;22.40;51.30;;;;;;5039603;28;20490;-72
2022/08/07 09:11:04;;;;;;;4.33;0.90;;;22.50;51.20;;;;;;5036305;28;20459;-73
2022/08/07 09:13:40;;;;;;;3.97;0.90;;;22.50;51.00;;;;;;5034256;28;20468;-74
2022/08/07 09:16:21;;;;;;;4.37;0.87;;;22.50;50.90;;;;;;5040358;28;20471;-75
2022/08/07 09:19:15;;;;;;;4.60;1.10;;;22.60;50.90;;;;;;5036692;28;20492;-74
2022/08/07 09:22:15;;;;;;;3.37;0.80;;;22.60;50.50;;;;;;5037776;28;20525;-74
2022/08/07 09:25:09;;;;;;;4.00;0.80;;;22.70;50.50;;;;;;5040964;28;20480;-75
2022/08/07 09:27:52;;;;;;;3.80;0.90;;;22.70;50.50;;;;;;5040418;28;20539;-75
2022/08/07 09:30:37;;;;;;;6.43;1.00;;;22.80;50.40;;;;;;5066096;28;21041;-75
2022/08/07 09:33:20;;;;;;;3.90;0.90;;;22.90;50.20;;;;;;5028903;28;20481;-73
2022/08/07 09:36:14;;;;;;;3.63;0.70;;;22.90;50.20;;;;;;5031339;28;20468;-75
2022/08/07 09:38:49;;;;;;;3.97;0.90;;;22.90;50.00;;;;;;5034108;28;20633;-75
2022/08/07 09:41:34;;;;;;;3.67;1.00;;;23.00;50.20;;;;;;5036543;28;20465;-74
2022/08/07 09:44:22;;;;;;;5.50;1.10;;;23.00;49.70;;;;;;5048033;28;20486;-73
2022/08/07 09:47:19;;;;;;;3.40;0.70;;;23.20;49.70;;;;;;5038524;28;20492;-74
2022/08/07 09:50:16;;;;;;;4.50;1.13;;;23.20;49.50;;;;;;5032150;28;20536;-74
2022/08/07 09:52:50;;;;;;;5.10;1.00;;;23.30;49.40;;;;;;5037798;28;20480;-74
2022/08/07 09:55:23;;;;;;;3.93;0.90;;;23.30;49.30;;;;;;5039411;28;21113;-75
2022/08/07 09:58:48;;;;;;;3.67;1.03;;;23.30;49.30;;;;;;5035754;28;20984;-75
2022/08/07 10:01:32;;;;;;;3.63;0.83;;;23.40;49.20;;;;;;5035584;28;20569;-75
2022/08/07 10:04:52;;;;;;;4.70;0.80;;;23.50;49.20;;;;;;5034961;28;21142;-74
2022/08/07 10:07:40;;;;;;;3.73;0.90;;;23.50;48.70;;;;;;5036932;28;20483;-74
2022/08/07 10:10:37;;;;;;;4.03;1.03;;;23.50;48.90;;;;;;5035990;28;20910;-74
2022/08/07 10:13:50;;;;;;;3.73;0.80;;;23.60;48.90;;;;;;5035045;28;20472;-75
2022/08/07 10:16:45;;;;;;;3.60;0.80;;;23.70;48.90;;;;;;5033405;28;20468;-73
2022/08/07 10:19:27;;;;;;;5.10;0.90;;;23.70;48.40;;;;;;5035331;28;21207;-75
2022/08/07 10:22:12;;;;;;;3.87;0.77;;;23.80;48.50;;;;;;5037425;28;20499;-75
2022/08/07 10:25:13;;;;;;;4.53;0.90;;;23.80;48.50;;;;;;5036954;28;20530;-74
2022/08/07 10:28:01;;;;;;;4.30;1.00;;;23.80;48.40;;;;;;5037185;28;20773;-76
2022/08/07 10:30:43;;;;;;;3.63;0.90;;;23.90;48.40;;;;;;5032700;28;20863;-76
2022/08/07 10:33:43;;;;;;;4.30;0.83;;;23.90;48.30;;;;;;5037898;28;20465;-73
2022/08/07 10:36:44;;;;;;;6.17;0.90;;;23.90;48.30;;;;;;5036830;28;20460;-79
2022/08/07 10:39:36;;;;;;;3.10;0.70;;;23.90;48.00;;;;;;5032646;28;20486;-73
2022/08/07 10:42:32;;;;;;;3.97;1.17;;;23.90;48.10;;;;;;5034486;28;20463;-73
2022/08/07 10:45:17;;;;;;;4.50;0.90;;;24.00;47.80;;;;;;5039401;28;20903;-73
2022/08/07 10:48:18;;;;;;;3.20;0.80;;;24.00;47.90;;;;;;5015018;28;20485;-75
2022/08/07 10:50:50;;;;;;;3.80;0.93;;;24.00;47.90;;;;;;5013967;28;20451;-75
2022/08/07 10:53:27;;;;;;;3.30;0.97;;;24.10;47.50;;;;;;5013211;28;20475;-76
2022/08/07 10:56:20;;;;;;;4.20;1.00;;;24.20;47.40;;;;;;5016463;28;20469;-75
2022/08/07 10:59:12;;;;;;;4.13;1.00;;;24.20;47.20;;;;;;5033032;28;20485;-74
2022/08/07 11:01:51;;;;;;;3.17;0.70;;;24.20;47.30;;;;;;5023708;28;20541;-76
2022/08/07 11:04:52;;;;;;;3.33;0.73;;;24.20;47.20;;;;;;5014650;28;21180;-75
2022/08/07 11:07:30;;;;;;;3.10;0.70;;;24.30;47.10;;;;;;5015923;28;20486;-76
2022/08/07 11:10:25;;;;;;;4.90;0.90;;;24.40;46.70;;;;;;5017566;28;20466;-74
2022/08/07 11:13:02;;;;;;;3.63;0.93;;;24.40;46.80;;;;;;5018241;28;20498;-75
2022/08/07 11:15:35;;;;;;;4.23;0.90;;;24.40;46.70;;;;;;5018511;28;20541;-75
2022/08/07 11:18:09;;;;;;;4.20;1.00;;;24.40;46.70;;;;;;5015122;28;20481;-73
2022/08/07 11:20:58;;;;;;;4.67;1.00;;;24.50;46.80;;;;;;5020530;28;20487;-75
2022/08/07 11:23:38;;;;;;;3.67;0.80;;;24.50;46.80;;;;;;5015017;28;20464;-74
2022/08/07 11:26:13;;;;;;;3.20;0.70;;;24.60;46.70;;;;;;5020817;28;20971;-76
2022/08/07 11:28:47;;;;;;;3.30;0.80;;;24.70;46.80;;;;;;5022562;28;20491;-75
2022/08/07 11:31:30;;;;;;;3.30;0.77;;;24.70;46.40;;;;;;5022771;28;20490;-75
2022/08/07 11:34:12;;;;;;;3.30;0.67;;;24.70;46.60;;;;;;5020449;28;20844;-75
2022/08/07 11:36:56;;;;;;;3.30;0.90;;;24.80;46.50;;;;;;5020285;28;21053;-76
2022/08/07 11:39:46;;;;;;;6.07;1.13;;;24.80;45.90;;;;;;5020571;28;20462;-73
2022/08/07 11:42:39;;;;;;;3.47;0.80;;;24.70;46.20;;;;;;5015468;28;20460;-75
2022/08/07 11:45:17;;;;;;;3.73;0.80;;;24.70;46.20;;;;;;5019462;28;20458;-76
2022/08/07 11:48:05;;;;;;;4.37;1.00;;;24.70;46.20;;;;;;5016449;28;20525;-76
2022/08/07 11:51:14;;;;;;;3.83;0.80;;;24.70;45.80;;;;;;5018114;28;20460;-74
2022/08/07 11:54:19;;;;;;;6.80;1.00;;;24.80;45.90;;;;;;5015791;28;20507;-75
2022/08/07 11:57:06;;;;;;;3.73;1.10;;;24.80;45.40;;;;;;5016105;28;20477;-75
2022/08/07 11:59:56;;;;;;;4.30;1.13;;;24.80;45.30;;;;;;5026414;28;20550;-75
2022/08/07 12:03:02;;;;;;;4.30;0.77;;;24.90;45.20;;;;;;5018448;28;20473;-74
2022/08/07 12:05:45;;;;;;;4.13;1.00;;;24.90;45.30;;;;;;5020054;28;20489;-76
2022/08/07 12:08:20;;;;;;;3.53;0.97;;;25.00;45.20;;;;;;5016994;28;20498;-75
2022/08/07 12:11:09;;;;;;;5.90;0.80;;;25.00;45.20;;;;;;5015460;28;20483;-76
2022/08/07 12:13:53;;;;;;;3.97;0.80;;;25.10;45.20;;;;;;5020426;28;20471;-76
2022/08/07 12:16:27;;;;;;;3.87;1.00;;;25.10;45.10;;;;;;5015854;28;20969;-75
2022/08/07 12:19:09;;;;;;;3.83;0.97;;;25.10;45.10;;;;;;5019361;28;20482;-76
2022/08/07 12:21:50;;;;;;;3.40;0.73;;;25.10;44.80;;;;;;5017719;28;20449;-76
2022/08/07 12:27:42;;;;;;;3.93;0.87;;;25.20;44.70;;;;;;5015228;28;20531;-75
2022/08/07 12:30:34;;;;;;;3.50;0.90;;;25.20;44.40;;;;;;5014386;28;20478;-75
2022/08/07 12:33:06;;;;;;;3.20;0.70;;;25.20;44.40;;;;;;5016005;28;20457;-74
2022/08/07 12:35:46;;;;;;;4.20;0.87;;;25.20;44.30;;;;;;5018619;28;20548;-75
2022/08/07 12:38:26;;;;;;;5.20;0.80;;;25.30;44.50;;;;;;5017751;28;20523;-74
2022/08/07 12:41:08;;;;;;;4.13;1.00;;;25.30;44.50;;;;;;5019286;28;20461;-74
2022/08/07 12:43:40;;;;;;;3.30;0.70;;;25.30;44.60;;;;;;5022076;28;20466;-73
2022/08/07 12:46:42;;;;;;;3.83;0.80;;;25.30;44.40;;;;;;5014379;28;21002;-75
2022/08/07 12:49:21;;;;;;;4.50;0.70;;;25.30;44.40;;;;;;5015446;28;20487;-76
2022/08/07 12:52:13;;;;;;;5.10;1.00;;;25.30;44.60;;;;;;5019007;28;20469;-76
2022/08/07 12:54:52;;;;;;;5.20;0.97;;;25.40;44.50;;;;;;5018319;28;20535;-76
2022/08/07 12:57:30;;;;;;;4.17;0.80;;;25.40;44.40;;;;;;5017611;28;20499;-73
2022/08/07 13:00:22;;;;;;;3.50;0.80;;;25.50;44.30;;;;;;5015726;28;20969;-75
2022/08/07 13:03:12;;;;;;;3.90;0.90;;;25.50;44.30;;;;;;5015027;28;20466;-76
2022/08/07 13:06:08;;;;;;;4.87;0.70;;;25.50;44.30;;;;;;5020732;28;20479;-75
2022/08/07 13:08:59;;;;;;;3.20;0.80;;;25.50;44.10;;;;;;5018394;28;20482;-75
2022/08/07 13:11:47;;;;;;;3.43;0.90;;;25.60;43.90;;;;;;5015102;28;20468;-75
2022/08/07 13:14:42;;;;;;;3.73;1.03;;;25.60;44.00;;;;;;5017474;28;20467;-75
2022/08/07 13:17:30;;;;;;;5.67;0.90;;;25.70;43.90;;;;;;5008435;28;20496;-73
2022/08/07 13:20:18;;;;;;;3.60;0.77;;;25.80;43.80;;;;;;5017133;28;20478;-73
2022/08/07 13:22:56;;;;;;;4.10;1.10;;;25.90;43.70;;;;;;5033344;28;20453;-75
2022/08/07 13:25:30;;;;;;;4.00;0.90;;;25.90;43.50;;;;;;5015822;28;20457;-75
2022/08/07 13:28:04;;;;;;;3.53;1.00;;;25.90;43.40;;;;;;5013172;28;20469;-75
2022/08/07 13:30:47;;;;;;;3.43;1.00;;;25.90;43.50;;;;;;5019294;28;20465;-76
2022/08/07 13:33:36;;;;;;;6.07;1.03;;;25.90;43.30;;;;;;5020079;28;20454;-74
2022/08/07 13:36:30;;;;;;;3.70;1.20;;;25.90;43.50;;;;;;5020346;28;20472;-75
2022/08/07 13:39:13;;;;;;;3.93;0.63;;;25.90;43.40;;;;;;5017056;28;20490;-76
2022/08/07 13:42:02;;;;;;;3.30;0.80;;;25.90;43.20;;;;;;5031364;28;21174;-74
2022/08/07 13:44:34;;;;;;;3.40;0.90;;;25.90;43.20;;;;;;5012890;28;21103;-74
2022/08/07 13:47:06;;;;;;;4.07;1.00;;;25.90;42.80;;;;;;5016107;28;20542;-75
2022/08/07 13:49:45;;;;;;;3.10;0.60;;;25.90;43.00;;;;;;5015772;28;20596;-75
2022/08/07 13:52:36;;;;;;;3.97;0.90;;;25.90;42.90;;;;;;5017780;28;20478;-74
2022/08/07 13:55:12;;;;;;;3.33;0.90;;;26.00;42.60;;;;;;5016299;28;20521;-74
2022/08/07 13:58:59;;;;;;;3.50;1.00;;;26.00;42.50;;;;;;5017804;28;20854;-75
2022/08/07 14:00:59;;;;;;;3.90;1.03;;;26.00;42.60;;;;;;5016807;28;20483;-74
2022/08/07 14:03:39;;;;;;;5.27;0.83;;;26.00;42.60;;;;;;5011845;28;20532;-75
2022/08/07 14:06:34;;;;;;;4.40;0.80;;;26.00;42.60;;;;;;5014604;28;20530;-74
2022/08/07 14:09:04;;;;;;;4.27;0.90;;;26.10;42.70;;;;;;5010914;28;20521;-74
2022/08/07 14:11:37;;;;;;;4.70;0.90;;;26.10;43.00;;;;;;5012682;28;20581;-75
2022/08/07 14:14:31;;;;;;;3.67;0.80;;;26.20;43.00;;;;;;5013684;28;20536;-75
2022/08/07 14:17:02;;;;;;;3.43;0.80;;;26.20;43.00;;;;;;5007547;28;20496;-75